createdAt,value
2018-08-07T00:01:39.732Z,18.21
2018-08-07T00:04:07.084Z,18.25
2018-08-07T00:06:34.374Z,18.18
2018-08-07T00:09:01.510Z,18.13
2018-08-07T00:11:28.903Z,18.14
2018-08-07T00:13:56.023Z,18.11
2018-08-07T00:16:23.232Z,18.12
2018-08-07T00:18:50.841Z,18.16
2018-08-07T00:21:17.959Z,18.23
2018-08-07T00:23:45.193Z,18.17
2018-08-07T00:26:12.396Z,18.12
2018-08-07T00:28:39.634Z,18.08
2018-08-07T00:31:06.955Z,18.06
2018-08-07T00:33:34.177Z,18.02
2018-08-07T00:36:01.397Z,17.93
2018-08-07T00:38:28.588Z,17.86
2018-08-07T00:40:55.915Z,17.83
2018-08-07T00:43:23.036Z,17.82
2018-08-07T00:45:50.226Z,17.82
2018-08-07T00:48:17.460Z,17.78
2018-08-07T00:50:44.562Z,17.75
2018-08-07T00:53:11.811Z,17.72
2018-08-07T00:55:39.016Z,17.78
2018-08-07T00:58:06.207Z,17.71
2018-08-07T01:00:33.463Z,17.65
2018-08-07T01:03:00.997Z,17.51
2018-08-07T01:05:29.076Z,17.36
2018-08-07T01:07:56.203Z,17.29
2018-08-07T01:10:23.401Z,17.12
2018-08-07T01:12:50.600Z,17.00
2018-08-07T01:15:19.389Z,16.92
2018-08-07T01:17:46.967Z,16.84
2018-08-07T01:20:16.295Z,16.87
2018-08-07T01:22:44.293Z,16.82
2018-08-07T01:25:13.994Z,16.80
2018-08-07T01:27:41.158Z,16.83
2018-08-07T01:30:11.035Z,16.87
2018-08-07T01:32:38.321Z,16.88
2018-08-07T01:35:05.488Z,16.93
2018-08-07T01:37:32.701Z,16.99
2018-08-07T01:40:00.007Z,17.00
2018-08-07T01:42:27.244Z,17.09
2018-08-07T01:44:54.384Z,17.16
2018-08-07T01:47:21.965Z,17.23
2018-08-07T01:49:49.159Z,17.27
2018-08-07T01:52:16.284Z,17.22
2018-08-07T01:54:43.556Z,17.23
2018-08-07T01:57:10.688Z,17.22
2018-08-07T01:59:37.815Z,17.18
2018-08-07T02:02:05.128Z,17.19
2018-08-07T02:04:32.289Z,17.23
2018-08-07T02:06:59.571Z,17.14
2018-08-07T02:09:26.736Z,17.11
2018-08-07T02:11:53.899Z,17.11
2018-08-07T02:14:21.115Z,17.07
2018-08-07T02:16:48.284Z,17.00
2018-08-07T02:19:16.334Z,16.95
2018-08-07T02:21:43.497Z,16.93
2018-08-07T02:24:10.696Z,16.85
2018-08-07T02:26:39.896Z,16.82
2018-08-07T02:29:07.030Z,16.83
2018-08-07T02:31:34.388Z,16.83
2018-08-07T02:34:01.504Z,16.83
2018-08-07T02:36:28.646Z,16.81
2018-08-07T02:38:55.924Z,16.80
2018-08-07T02:41:23.064Z,16.80
2018-08-07T02:43:50.304Z,16.74
2018-08-07T02:46:17.476Z,16.70
2018-08-07T02:48:44.597Z,16.76
2018-08-07T02:51:11.801Z,16.64
2018-08-07T02:53:38.980Z,16.58
2018-08-07T02:56:06.240Z,16.57
2018-08-07T02:58:33.383Z,16.54
2018-08-07T03:01:00.620Z,16.47
2018-08-07T03:03:27.829Z,16.46
2018-08-07T03:05:55.002Z,16.43
2018-08-07T03:08:22.258Z,16.47
2018-08-07T03:10:49.431Z,16.49
2018-08-07T03:13:16.579Z,16.40
2018-08-07T03:15:44.195Z,16.36
2018-08-07T03:18:34.106Z,16.21
2018-08-07T03:21:01.357Z,16.09
2018-08-07T03:23:28.528Z,16.01
2018-08-07T03:25:55.743Z,15.91
2018-08-07T03:28:22.976Z,15.76
2018-08-07T03:30:50.107Z,15.70
2018-08-07T03:33:17.299Z,15.65
2018-08-07T03:35:44.563Z,15.60
2018-08-07T03:38:11.767Z,15.53
2018-08-07T03:40:39.087Z,15.45
2018-08-07T03:43:06.368Z,15.42
2018-08-07T03:45:33.574Z,15.34
2018-08-07T03:48:00.719Z,15.33
2018-08-07T03:50:28.333Z,15.28
2018-08-07T03:52:55.606Z,15.26
2018-08-07T03:55:22.761Z,15.25
2018-08-07T03:57:50.017Z,15.21
2018-08-07T04:00:20.876Z,15.18
2018-08-07T04:02:48.095Z,15.16
2018-08-07T04:05:15.470Z,15.18
2018-08-07T04:07:42.610Z,15.14
2018-08-07T04:10:11.339Z,15.12
2018-08-07T04:12:38.810Z,15.13
2018-08-07T04:15:07.472Z,15.13
2018-08-07T04:17:35.045Z,15.14
2018-08-07T04:20:02.555Z,15.16
2018-08-07T04:22:29.768Z,15.15
2018-08-07T04:24:58.941Z,15.16
2018-08-07T04:27:26.164Z,15.21
2018-08-07T04:29:53.430Z,15.22
2018-08-07T04:32:20.596Z,15.26
2018-08-07T04:34:47.817Z,15.29
2018-08-07T04:37:34.935Z,15.34
2018-08-07T04:40:02.208Z,15.53
2018-08-07T04:42:29.388Z,15.64
2018-08-07T04:44:56.560Z,15.69
2018-08-07T04:47:23.755Z,15.84
2018-08-07T04:49:50.930Z,15.97
2018-08-07T04:52:18.144Z,16.16
2018-08-07T04:54:45.680Z,16.26
2018-08-07T04:57:12.937Z,16.51
2018-08-07T04:59:40.089Z,16.71
2018-08-07T05:02:07.380Z,16.94
2018-08-07T05:04:53.370Z,17.07
2018-08-07T05:07:20.659Z,17.24
2018-08-07T05:09:47.828Z,17.42
2018-08-07T05:12:15.025Z,17.63
2018-08-07T05:14:58.442Z,17.81
2018-08-07T05:17:25.624Z,17.99
2018-08-07T05:19:52.771Z,18.19
2018-08-07T05:22:20.838Z,18.39
2018-08-07T05:24:48.308Z,18.47
2018-08-07T05:27:16.271Z,18.59
2018-08-07T05:29:43.552Z,18.77
2018-08-07T05:32:10.766Z,18.90
2018-08-07T05:34:37.994Z,19.04
2018-08-07T05:37:05.270Z,19.03
2018-08-07T05:39:44.868Z,19.11
2018-08-07T05:42:12.159Z,19.23
2018-08-07T05:44:39.381Z,19.32
2018-08-07T05:47:06.589Z,19.43
2018-08-07T05:49:33.796Z,19.46
2018-08-07T05:52:01.008Z,19.68
2018-08-07T05:54:30.218Z,19.83
2018-08-07T05:56:57.488Z,19.98
2018-08-07T05:59:24.771Z,20.16
2018-08-07T06:01:51.956Z,20.38
2018-08-07T06:04:19.279Z,20.37
2018-08-07T06:06:46.501Z,20.47
2018-08-07T06:09:13.843Z,20.67
2018-08-07T06:11:41.107Z,20.81
2018-08-07T06:14:08.278Z,20.89
2018-08-07T06:16:35.534Z,21.00
2018-08-07T06:19:02.733Z,21.24
2018-08-07T06:21:29.976Z,21.26
2018-08-07T06:23:57.479Z,21.41
2018-08-07T06:26:25.671Z,21.43
2018-08-07T06:28:53.156Z,21.54
2018-08-07T06:31:20.809Z,21.70
2018-08-07T06:33:48.174Z,21.97
2018-08-07T06:36:15.651Z,22.11
2018-08-07T06:38:42.804Z,22.22
2018-08-07T06:41:10.055Z,22.34
2018-08-07T06:43:37.506Z,22.49
2018-08-07T06:46:05.263Z,22.53
2018-08-07T06:48:32.491Z,22.81
2018-08-07T06:50:59.709Z,22.88
2018-08-07T06:53:26.903Z,22.99
2018-08-07T06:55:54.239Z,23.20
2018-08-07T06:58:21.455Z,23.30
2018-08-07T07:00:48.655Z,23.55
2018-08-07T07:03:15.966Z,23.49
2018-08-07T07:05:43.144Z,23.57
2018-08-07T07:08:10.290Z,23.81
2018-08-07T07:10:37.519Z,23.86
2018-08-07T07:13:04.806Z,24.07
2018-08-07T07:15:31.929Z,24.20
2018-08-07T07:17:59.163Z,24.28
2018-08-07T07:20:26.321Z,24.55
2018-08-07T07:22:53.508Z,24.64
2018-08-07T07:25:20.727Z,24.75
2018-08-07T07:27:47.881Z,24.83
2018-08-07T07:30:17.339Z,24.92
2018-08-07T07:32:45.866Z,25.19
2018-08-07T07:35:13.404Z,25.29
2018-08-07T07:37:40.754Z,25.48
2018-08-07T07:40:07.927Z,25.66
2018-08-07T07:42:35.603Z,25.97
2018-08-07T07:45:02.761Z,26.22
2018-08-07T07:47:30.003Z,26.20
2018-08-07T07:49:57.148Z,26.39
2018-08-07T07:52:24.284Z,26.38
2018-08-07T07:54:51.500Z,26.42
2018-08-07T07:57:18.701Z,26.62
2018-08-07T07:59:45.940Z,26.96
2018-08-07T08:02:13.144Z,27.03
2018-08-07T08:04:40.276Z,27.02
2018-08-07T08:07:07.435Z,27.19
2018-08-07T08:09:34.624Z,27.38
2018-08-07T08:12:01.905Z,27.78
2018-08-07T08:14:29.164Z,27.74
2018-08-07T08:16:56.374Z,27.95
2018-08-07T08:19:23.550Z,28.04
2018-08-07T08:21:50.683Z,28.01
2018-08-07T08:24:17.928Z,28.31
2018-08-07T08:26:45.122Z,28.31
2018-08-07T08:29:12.303Z,28.58
2018-08-07T08:31:39.963Z,28.73
2018-08-07T08:34:07.103Z,29.14
2018-08-07T08:36:34.328Z,29.34
2018-08-07T08:39:01.565Z,29.50
2018-08-07T08:41:32.662Z,29.56
2018-08-07T08:43:59.876Z,29.80
2018-08-07T08:46:27.147Z,30.17
2018-08-07T08:48:54.964Z,30.16
2018-08-07T08:51:22.440Z,30.12
2018-08-07T08:53:49.642Z,30.09
2018-08-07T08:56:16.817Z,30.44
2018-08-07T08:58:43.943Z,30.47
2018-08-07T09:01:11.260Z,30.70
2018-08-07T09:03:38.463Z,30.97
2018-08-07T09:06:05.616Z,31.07
2018-08-07T09:08:35.066Z,31.11
2018-08-07T09:11:03.139Z,31.14
2018-08-07T09:13:30.328Z,31.44
2018-08-07T09:15:57.577Z,31.23
2018-08-07T09:18:24.697Z,31.63
2018-08-07T09:20:51.862Z,31.66
2018-08-07T09:23:19.110Z,31.72
2018-08-07T09:25:46.739Z,32.09
2018-08-07T09:28:14.589Z,32.36
2018-08-07T09:30:41.777Z,32.48
2018-08-07T09:33:09.111Z,32.47
2018-08-07T09:35:36.235Z,32.69
2018-08-07T09:38:03.507Z,32.98
2018-08-07T09:40:31.792Z,32.96
2018-08-07T09:42:58.984Z,32.12
2018-08-07T09:45:28.591Z,32.95
2018-08-07T09:47:55.770Z,33.46
2018-08-07T09:50:22.976Z,33.67
2018-08-07T09:52:50.405Z,33.89
2018-08-07T09:55:17.563Z,33.72
2018-08-07T09:57:44.803Z,33.81
2018-08-07T10:00:23.985Z,34.37
2018-08-07T10:02:53.516Z,34.76
2018-08-07T10:05:22.373Z,34.85
2018-08-07T10:07:49.987Z,35.04
2018-08-07T10:10:17.390Z,35.20
2018-08-07T10:12:44.979Z,35.53
2018-08-07T10:15:12.571Z,35.73
2018-08-07T10:17:39.745Z,35.67
2018-08-07T10:20:08.341Z,35.68
2018-08-07T10:22:35.594Z,36.08
2018-08-07T10:25:03.363Z,35.93
2018-08-07T10:27:30.860Z,35.91
2018-08-07T10:29:58.018Z,35.75
2018-08-07T10:32:25.318Z,36.42
2018-08-07T10:34:52.479Z,36.82
2018-08-07T10:37:19.814Z,36.70
2018-08-07T10:39:47.699Z,36.60
2018-08-07T10:42:14.941Z,35.25
2018-08-07T10:44:42.227Z,36.25
2018-08-07T10:47:09.487Z,36.99
2018-08-07T10:49:36.649Z,37.40
2018-08-07T10:52:03.988Z,36.97
2018-08-07T10:54:31.251Z,37.42
2018-08-07T10:56:58.550Z,37.80
2018-08-07T10:59:26.032Z,37.97
2018-08-07T11:01:53.183Z,36.50
2018-08-07T11:04:20.446Z,37.36
2018-08-07T11:06:47.638Z,37.35
2018-08-07T11:09:14.865Z,37.84
2018-08-07T11:11:42.024Z,38.03
2018-08-07T11:14:09.229Z,38.30
2018-08-07T11:16:36.480Z,37.95
2018-08-07T11:19:03.756Z,38.50
2018-08-07T11:21:31.073Z,38.15
2018-08-07T11:23:58.225Z,38.71
2018-08-07T11:26:25.431Z,37.96
2018-08-07T11:28:52.712Z,39.08
2018-08-07T11:31:19.943Z,39.05
2018-08-07T11:33:47.095Z,38.43
2018-08-07T11:36:14.563Z,38.50
2018-08-07T11:38:41.735Z,38.33
2018-08-07T11:41:10.413Z,38.61
2018-08-07T11:43:37.706Z,39.16
2018-08-07T11:46:05.398Z,39.39
2018-08-07T11:48:32.669Z,40.19
2018-08-07T11:50:59.840Z,40.17
2018-08-07T11:53:27.547Z,40.70
2018-08-07T11:55:54.833Z,40.58
2018-08-07T11:58:22.130Z,41.10
2018-08-07T12:00:49.457Z,41.35
2018-08-07T12:03:16.636Z,40.31
2018-08-07T12:05:44.313Z,39.03
2018-08-07T12:08:11.524Z,37.97
2018-08-07T12:10:38.804Z,38.61
2018-08-07T12:13:06.173Z,38.26
2018-08-07T12:15:34.486Z,38.17
2018-08-07T12:18:02.064Z,37.58
2018-08-07T12:20:29.344Z,37.49
2018-08-07T12:22:56.617Z,37.12
2018-08-07T12:25:23.852Z,36.49
2018-08-07T12:27:51.279Z,35.79
2018-08-07T12:30:28.487Z,36.02
2018-08-07T12:32:56.121Z,36.26
2018-08-07T12:35:23.337Z,36.41
2018-08-07T12:37:50.538Z,36.12
2018-08-07T12:40:20.927Z,35.53
2018-08-07T12:42:48.563Z,35.36
2018-08-07T12:45:15.767Z,35.45
2018-08-07T12:47:43.677Z,35.39
2018-08-07T12:50:12.216Z,35.41
2018-08-07T12:52:39.883Z,35.15
2018-08-07T12:55:10.040Z,35.20
2018-08-07T12:57:37.327Z,35.25
2018-08-07T13:00:09.758Z,35.08
2018-08-07T13:02:36.978Z,35.13
2018-08-07T13:05:04.520Z,35.09
2018-08-07T13:07:31.715Z,35.28
2018-08-07T13:09:59.360Z,35.35
2018-08-07T13:12:26.693Z,35.42
2018-08-07T13:14:53.978Z,35.35
2018-08-07T13:17:21.441Z,35.22
2018-08-07T13:19:48.635Z,35.14
2018-08-07T13:22:15.848Z,35.35
2018-08-07T13:24:43.495Z,35.28
2018-08-07T13:27:10.869Z,35.49
2018-08-07T13:29:38.209Z,35.63
2018-08-07T13:32:05.787Z,35.56
2018-08-07T13:34:33.105Z,35.48
2018-08-07T13:37:00.385Z,35.42
2018-08-07T13:39:27.689Z,35.48
2018-08-07T13:41:55.226Z,35.35
2018-08-07T13:44:22.563Z,35.57
2018-08-07T13:46:49.836Z,35.68
2018-08-07T13:49:17.036Z,35.34
2018-08-07T13:51:44.707Z,35.64
2018-08-07T13:54:12.192Z,35.78
2018-08-07T13:56:42.806Z,35.79
2018-08-07T13:59:10.111Z,36.05
2018-08-07T14:01:37.298Z,35.96
2018-08-07T14:04:04.565Z,36.06
2018-08-07T14:06:32.132Z,35.94
2018-08-07T14:08:59.343Z,35.69
2018-08-07T14:11:26.652Z,35.67
2018-08-07T14:13:53.885Z,36.00
2018-08-07T14:16:21.296Z,35.72
2018-08-07T14:18:48.633Z,35.64
2018-08-07T14:21:15.851Z,34.92
2018-08-07T14:23:43.884Z,34.96
2018-08-07T14:26:11.129Z,34.88
2018-08-07T14:28:38.400Z,35.34
2018-08-07T14:31:07.939Z,35.39
2018-08-07T14:33:35.187Z,35.63
2018-08-07T14:36:02.631Z,35.43
2018-08-07T14:38:29.980Z,35.54
2018-08-07T14:40:57.173Z,35.67
2018-08-07T14:43:24.602Z,35.65
2018-08-07T14:45:51.916Z,35.86
2018-08-07T14:48:19.174Z,35.17
2018-08-07T14:50:46.478Z,35.20
2018-08-07T14:53:14.477Z,34.93
2018-08-07T14:55:41.936Z,34.52
2018-08-07T14:58:09.209Z,34.36
2018-08-07T15:00:36.564Z,34.18
2018-08-07T15:03:04.093Z,33.78
2018-08-07T15:05:31.404Z,33.92
2018-08-07T15:07:58.807Z,34.39
2018-08-07T15:10:27.039Z,34.68
2018-08-07T15:12:55.454Z,34.66
2018-08-07T15:15:25.520Z,34.32
2018-08-07T15:17:52.784Z,34.65
2018-08-07T15:20:22.069Z,34.95
2018-08-07T15:22:50.202Z,35.00
2018-08-07T15:25:18.251Z,34.83
2018-08-07T15:27:45.699Z,35.05
2018-08-07T15:30:15.914Z,34.82
2018-08-07T15:32:44.409Z,35.15
2018-08-07T15:35:20.241Z,35.08
2018-08-07T15:37:47.667Z,35.31
2018-08-07T15:40:15.639Z,35.03
2018-08-07T15:42:43.967Z,34.90
2018-08-07T15:45:12.292Z,34.76
2018-08-07T15:47:39.572Z,34.74
2018-08-07T15:50:12.351Z,34.92
2018-08-07T15:52:40.331Z,34.91
2018-08-07T15:55:08.254Z,34.81
2018-08-07T15:57:35.559Z,35.08
2018-08-07T16:00:04.072Z,34.85
2018-08-07T16:02:31.536Z,34.96
2018-08-07T16:04:58.848Z,34.81
2018-08-07T16:07:26.210Z,35.07
2018-08-07T16:09:53.926Z,35.00
2018-08-07T16:12:21.342Z,34.35
2018-08-07T16:14:48.582Z,34.32
2018-08-07T16:17:15.752Z,34.30
2018-08-07T16:19:43.280Z,34.26
2018-08-07T16:22:10.598Z,34.20
2018-08-07T16:24:37.982Z,34.19
2018-08-07T16:27:05.603Z,34.22
2018-08-07T16:29:33.240Z,34.14
2018-08-07T16:32:00.828Z,34.19
2018-08-07T16:34:28.266Z,34.10
2018-08-07T16:36:55.713Z,34.05
2018-08-07T16:39:23.095Z,34.10
2018-08-07T16:41:50.478Z,33.92
2018-08-07T16:44:17.954Z,33.91
2018-08-07T16:46:45.389Z,33.82
2018-08-07T16:49:12.789Z,33.70
2018-08-07T16:51:41.148Z,33.65
2018-08-07T16:54:09.039Z,33.43
2018-08-07T16:56:36.840Z,33.45
2018-08-07T16:59:04.188Z,33.34
2018-08-07T17:01:31.503Z,33.29
2018-08-07T17:03:58.932Z,33.25
2018-08-07T17:06:26.238Z,33.21
2018-08-07T17:08:53.845Z,33.11
2018-08-07T17:11:21.288Z,33.04
2018-08-07T17:13:48.501Z,32.88
2018-08-07T17:16:15.675Z,32.89
2018-08-07T17:18:43.421Z,32.78
2018-08-07T17:21:10.814Z,32.59
2018-08-07T17:23:38.177Z,32.57
2018-08-07T17:26:05.583Z,32.59
2018-08-07T17:28:33.787Z,32.48
2018-08-07T17:31:01.280Z,32.46
2018-08-07T17:33:28.853Z,32.32
2018-08-07T17:35:56.254Z,32.23
2018-08-07T17:38:23.632Z,32.14
2018-08-07T17:40:51.088Z,32.09
2018-08-07T17:43:18.499Z,32.02
2018-08-07T17:45:45.841Z,31.98
2018-08-07T17:48:13.340Z,31.91
2018-08-07T17:50:41.112Z,31.93
2018-08-07T17:53:08.409Z,31.84
2018-08-07T17:55:35.808Z,31.83
2018-08-07T17:58:04.384Z,31.66
2018-08-07T18:00:31.668Z,31.58
2018-08-07T18:02:59.179Z,31.54
2018-08-07T18:05:29.797Z,31.45
2018-08-07T18:07:57.907Z,31.34
2018-08-07T18:10:26.429Z,31.33
2018-08-07T18:12:53.892Z,31.31
2018-08-07T18:15:22.262Z,31.26
2018-08-07T18:17:49.914Z,31.15
2018-08-07T18:20:20.329Z,31.11
2018-08-07T18:22:47.984Z,30.97
2018-08-07T18:25:15.261Z,30.78
2018-08-07T18:27:42.657Z,30.79
2018-08-07T18:30:14.320Z,30.61
2018-08-07T18:32:43.149Z,30.34
2018-08-07T18:35:15.255Z,30.12
2018-08-07T18:37:42.662Z,30.01
2018-08-07T18:40:14.416Z,29.96
2018-08-07T18:42:43.052Z,29.96
2018-08-07T18:45:13.608Z,29.90
2018-08-07T18:47:41.826Z,29.81
2018-08-07T18:50:12.568Z,29.83
2018-08-07T18:52:40.275Z,29.80
2018-08-07T18:55:11.163Z,29.70
2018-08-07T18:57:42.311Z,29.65
2018-08-07T19:00:12.379Z,29.56
2018-08-07T19:02:40.982Z,29.50
2018-08-07T19:05:09.601Z,29.34
2018-08-07T19:07:39.908Z,29.33
2018-08-07T19:10:10.201Z,29.26
2018-08-07T19:12:37.675Z,29.17
2018-08-07T19:15:05.904Z,29.05
2018-08-07T19:17:33.538Z,28.88
2018-08-07T19:20:06.099Z,28.80
2018-08-07T19:22:33.439Z,28.67
2018-08-07T19:25:01.018Z,28.63
2018-08-07T19:27:28.330Z,28.46
2018-08-07T19:29:56.463Z,28.26
2018-08-07T19:32:24.562Z,28.09
2018-08-07T19:34:55.582Z,27.81
2018-08-07T19:37:23.733Z,27.52
2018-08-07T19:39:53.217Z,27.36
2018-08-07T19:42:22.616Z,27.13
2018-08-07T19:44:51.497Z,26.95
2018-08-07T19:47:19.067Z,26.88
2018-08-07T19:50:57.955Z,26.76
2018-08-07T19:53:26.039Z,26.72
2018-08-07T19:55:53.793Z,26.72
2018-08-07T19:58:21.557Z,26.78
2018-08-07T20:00:48.919Z,26.74
2018-08-07T20:03:17.193Z,26.60
2018-08-07T20:05:54.816Z,26.51
2018-08-07T20:08:24.341Z,26.42
2018-08-07T20:10:52.646Z,26.29
2018-08-07T20:13:20.600Z,26.14
2018-08-07T20:15:48.200Z,26.11
2018-08-07T20:18:16.055Z,26.00
2018-08-07T20:20:47.063Z,25.88
2018-08-07T20:23:15.004Z,25.99
2018-08-07T20:25:43.149Z,25.92
2018-08-07T20:28:10.592Z,25.75
2018-08-07T20:30:37.933Z,25.77
2018-08-07T20:33:05.275Z,26.02
2018-08-07T20:35:32.515Z,26.41
2018-08-07T20:38:00.262Z,26.42
2018-08-07T20:40:27.857Z,26.44
2018-08-07T20:42:56.795Z,26.41
2018-08-07T20:45:24.321Z,26.49
2018-08-07T20:47:51.669Z,26.40
2018-08-07T20:50:21.251Z,26.42
2018-08-07T20:52:49.744Z,26.34
2018-08-07T20:55:17.247Z,26.27
2018-08-07T20:57:45.002Z,26.16
2018-08-07T21:00:19.016Z,26.18
2018-08-07T21:02:46.633Z,25.99
2018-08-07T21:05:13.998Z,25.90
2018-08-07T21:07:41.804Z,25.67
2018-08-07T21:10:12.245Z,25.50
2018-08-07T21:12:40.876Z,25.34
2018-08-07T21:15:08.569Z,25.10
2018-08-07T21:17:36.237Z,24.93
2018-08-07T21:20:04.887Z,24.80
2018-08-07T21:22:32.214Z,24.73
2018-08-07T21:24:59.589Z,24.86
2018-08-07T21:27:26.813Z,25.00
2018-08-07T21:29:53.951Z,25.18
2018-08-07T21:32:21.645Z,25.35
2018-08-07T21:34:54.454Z,25.40
2018-08-07T21:37:22.120Z,25.59
2018-08-07T21:39:49.483Z,25.44
2018-08-07T21:42:16.832Z,25.50
2018-08-07T21:44:44.069Z,25.57
2018-08-07T21:47:11.364Z,25.46
2018-08-07T21:49:38.597Z,25.45
2018-08-07T21:52:06.545Z,25.32
2018-08-07T21:54:33.791Z,25.37
2018-08-07T21:57:01.229Z,25.48
2018-08-07T21:59:28.819Z,25.51
2018-08-07T22:01:56.266Z,25.45
2018-08-07T22:04:23.441Z,25.38
2018-08-07T22:06:51.053Z,25.45
2018-08-07T22:09:18.328Z,25.49
2018-08-07T22:11:45.659Z,25.47
2018-08-07T22:14:13.032Z,25.45
2018-08-07T22:16:40.317Z,25.41
2018-08-07T22:19:07.683Z,25.34
2018-08-07T22:21:35.211Z,25.26
2018-08-07T22:24:02.518Z,25.21
2018-08-07T22:26:29.724Z,25.16
2018-08-07T22:28:57.096Z,25.14
2018-08-07T22:31:24.683Z,25.09
2018-08-07T22:33:52.372Z,25.14
2018-08-07T22:36:19.779Z,25.13
2018-08-07T22:38:46.992Z,25.12
2018-08-07T22:41:14.201Z,25.08
2018-08-07T22:43:41.456Z,24.95
2018-08-07T22:46:08.689Z,24.96
2018-08-07T22:48:35.902Z,24.96
2018-08-07T22:51:03.190Z,24.98
2018-08-07T22:53:30.441Z,24.91
2018-08-07T22:55:58.193Z,24.87
2018-08-07T22:58:25.528Z,24.79
2018-08-07T23:00:52.757Z,24.79
2018-08-07T23:03:20.013Z,24.71
2018-08-07T23:05:47.346Z,24.68
2018-08-07T23:08:14.944Z,24.66
2018-08-07T23:10:42.362Z,24.68
2018-08-07T23:13:09.648Z,24.68
2018-08-07T23:15:36.848Z,24.68
2018-08-07T23:18:04.665Z,24.67
2018-08-07T23:20:36.842Z,24.66
2018-08-07T23:23:04.053Z,24.64
2018-08-07T23:25:31.337Z,24.62
2018-08-07T23:27:58.718Z,24.59
2018-08-07T23:30:26.024Z,24.59
2018-08-07T23:32:53.291Z,24.61
2018-08-07T23:35:20.774Z,24.57
2018-08-07T23:38:06.060Z,24.55
2018-08-07T23:40:33.543Z,24.48
2018-08-07T23:43:01.783Z,24.49
2018-08-07T23:45:29.366Z,24.52
2018-08-07T23:47:56.718Z,24.45
2018-08-07T23:50:36.349Z,24.43
2018-08-07T23:53:03.617Z,24.43
2018-08-07T23:55:30.800Z,24.36
2018-08-07T23:57:58.109Z,24.37
